Time;durP1;ratioP1;P1;durP2;ratioP2;P2;SDS_P1;SDS_P2;PMS_P1;PMS_P2;Temp;Humidity;BMP_temperature;BMP_pressure;BME280_temperature;BME280_humidity;BME280_pressure;Samples;Min_cycle;Max_cycle;Signal;HPM_P1;HPM_P2
2022/09/26 00:00:48;;;;;;;;;1.75;1.75;;;;;13.94;64.64;101233.56;5093036;27;49867;-75
2022/09/26 00:03:14;;;;;;;;;1.75;1.75;;;;;13.94;64.68;101237.94;5093024;27;49773;-75
2022/09/26 00:05:39;;;;;;;;;2.00;2.00;;;;;13.91;64.95;101222.06;5093316;27;49769;-72
2022/09/26 00:08:06;;;;;;;;;2.75;1.00;;;;;13.63;64.67;101165.38;5092975;27;51231;-76
2022/09/26 00:10:32;;;;;;;;;2.00;1.00;;;;;13.52;65.08;101146.75;5095491;27;49666;-72
2022/09/26 00:12:58;;;;;;;;;1.25;1.00;;;;;13.92;64.93;101211.53;5091317;27;49905;-74
2022/09/26 00:15:24;;;;;;;;;4.50;2.75;;;;;13.96;65.21;101210.69;5092923;27;50067;-74
2022/09/26 00:17:50;;;;;;;;;2.75;2.75;;;;;13.67;64.94;101146.06;5106113;27;50268;-75
2022/09/26 00:20:15;;;;;;;;;1.00;1.00;;;;;13.50;64.87;101122.06;5112226;27;49766;-73
2022/09/26 00:22:41;;;;;;;;;0.50;0.50;;;;;13.93;64.36;101199.22;5112617;27;49752;-74
2022/09/26 00:25:07;;;;;;;;;1.00;1.00;;;;;13.75;64.84;101176.09;5112854;27;49713;-72
2022/09/26 00:27:32;;;;;;;;;2.25;1.00;;;;;13.90;65.15;101194.78;5112515;27;49766;-73
2022/09/26 00:29:57;;;;;;;;;3.25;1.50;;;;;13.78;64.74;101177.88;5112569;27;50050;-74
2022/09/26 00:32:23;;;;;;;;;2.50;1.25;;;;;13.17;65.03;101080.25;5112380;27;49714;-73
2022/09/26 00:34:49;;;;;;;;;1.25;1.25;;;;;13.89;64.60;101181.56;5112354;27;50118;-72
2022/09/26 00:37:15;;;;;;;;;2.75;1.25;;;;;13.82;64.94;101177.97;5112260;27;50585;-72
2022/09/26 00:39:41;;;;;;;;;1.00;1.00;;;;;13.87;64.84;101180.66;5112073;27;49865;-75
2022/09/26 00:42:08;;;;;;;;;2.00;1.00;;;;;13.65;65.13;101146.06;5112179;27;49691;-75
2022/09/26 00:44:40;;;;;;;;;0.00;0.00;;;;;13.83;64.90;101179.72;5112499;27;49651;-72
2022/09/26 00:47:17;;;;;;;;;1.25;0.25;;;;;13.27;64.70;101084.84;5093716;27;51672;-75
2022/09/26 00:49:44;;;;;;;;;2.00;2.00;;;;;13.84;64.76;101177.97;5111907;27;49839;-74
2022/09/26 00:52:23;;;;;;;;;0.00;0.00;;;;;13.84;64.72;101170.06;5112185;27;49799;-72
2022/09/26 00:54:53;;;;;;;;;2.25;1.00;;;;;12.66;64.75;100975.81;5112259;27;49865;-73
2022/09/26 00:57:27;;;;;;;;;2.75;2.75;;;;;13.80;64.84;101170.88;5111875;27;50529;-71
2022/09/26 01:00:00;;;;;;;;;1.25;1.25;;;;;13.79;64.71;101147.97;5111838;27;49648;-73
2022/09/26 01:02:27;;;;;;;;;1.75;1.75;;;;;13.86;64.52;101163.03;5111848;27;49697;-74
2022/09/26 01:04:54;;;;;;;;;1.00;1.00;;;;;13.80;64.73;101142.75;5112030;27;49665;-74
2022/09/26 01:07:22;;;;;;;;;1.00;1.00;;;;;13.85;65.01;101161.28;5111687;27;50876;-75
2022/09/26 01:09:50;;;;;;;;;3.00;3.00;;;;;13.47;64.90;101095.66;5111616;27;49856;-73
2022/09/26 01:12:16;;;;;;;;;1.00;1.00;;;;;13.80;64.89;101158.59;5111831;27;49664;-74
2022/09/26 01:14:44;;;;;;;;;3.00;2.00;;;;;13.53;64.78;101124.78;5111836;27;49897;-72
2022/09/26 01:17:10;;;;;;;;;2.25;1.75;;;;;13.69;64.71;101145.22;5111665;27;49987;-75
2022/09/26 01:19:35;;;;;;;;;2.50;2.50;;;;;13.75;65.26;101150.59;5111661;27;50253;-74
2022/09/26 01:22:01;;;;;;;;;2.75;1.50;;;;;13.75;64.39;101154.97;5110750;27;49803;-71
2022/09/26 01:24:45;;;;;;;;;2.00;2.00;;;;;13.72;64.53;101150.56;5111948;27;49999;-74
2022/09/26 01:27:41;;;;;;;;;1.25;1.00;;;;;13.69;64.82;101147.84;5092887;27;52210;-73
2022/09/26 01:30:09;;;;;;;;;2.25;1.00;;;;;12.50;64.64;100948.34;5111418;27;49761;-74
2022/09/26 01:33:06;;;;;;;;;2.00;1.50;;;;;13.69;65.34;101146.97;5111428;27;49880;-72
2022/09/26 01:35:31;;;;;;;;;1.00;1.00;;;;;13.69;64.79;101144.34;5111407;27;50077;-74
2022/09/26 01:38:32;;;;;;;;;1.00;1.00;;;;;13.45;64.82;101106.19;5090933;27;51265;-72
2022/09/26 01:41:35;;;;;;;;;1.25;1.25;;;;;13.65;65.03;101139.88;5027429;28;49920;-72
2022/09/26 01:44:25;;;;;;;;;2.25;1.25;;;;;13.63;64.97;101137.22;5111574;27;49688;-75
2022/09/26 01:47:24;;;;;;;;;0.00;0.00;;;;;13.68;65.05;101135.53;5111441;27;50047;-72
2022/09/26 01:50:05;;;;;;;;;2.00;2.00;;;;;13.08;65.31;101033.53;5110707;27;50939;-75
2022/09/26 01:52:59;;;;;;;;;1.00;1.00;;;;;13.66;64.66;101121.44;5111452;27;49758;-75
2022/09/26 01:55:35;;;;;;;;;1.00;1.00;;;;;13.62;64.33;101100.28;5109087;27;49752;-73
2022/09/26 01:58:21;;;;;;;;;1.00;1.00;;;;;13.68;64.17;101103.00;5111748;27;49891;-72
2022/09/26 02:00:48;;;;;;;;;0.75;0.75;;;;;13.40;64.23;101065.69;5113501;27;49737;-71
2022/09/26 02:03:19;;;;;;;;;1.00;1.00;;;;;13.66;64.29;101102.97;5115081;27;49886;-73
2022/09/26 02:06:09;;;;;;;;;3.50;3.00;;;;;13.36;64.16;101048.06;5094916;27;49996;-74
2022/09/26 02:08:41;;;;;;;;;0.00;0.00;;;;;12.88;64.27;100961.22;5096053;27;50053;-74
2022/09/26 02:11:12;;;;;;;;;2.75;1.00;;;;;13.60;64.83;101079.13;5095039;27;50693;-73
2022/09/26 02:13:56;;;;;;;;;2.75;2.75;;;;;13.66;64.72;101087.16;5095238;27;49707;-72
2022/09/26 02:16:45;;;;;;;;;2.25;1.00;;;;;13.27;64.63;101013.66;5108582;27;49923;-71
2022/09/26 02:19:40;;;;;;;;;2.50;2.25;;;;;13.67;64.57;101073.09;5114559;27;49869;-75
2022/09/26 02:22:05;;;;;;;;;4.50;3.00;;;;;13.41;64.64;101027.00;5093357;27;50841;-71
2022/09/26 02:24:31;;;;;;;;;2.25;0.50;;;;;13.58;64.56;101065.03;5091799;27;49714;-74
2022/09/26 02:26:56;;;;;;;;;2.00;2.00;;;;;12.56;64.51;100894.91;5092359;27;49755;-72
2022/09/26 02:29:22;;;;;;;;;2.50;1.00;;;;;12.30;63.61;100853.25;5094447;27;49628;-74
2022/09/26 02:32:02;;;;;;;;;2.00;2.00;;;;;13.43;64.24;101023.53;5096236;27;49854;-74
2022/09/26 02:34:28;;;;;;;;;1.00;1.00;;;;;13.65;64.03;101061.63;5112307;27;49818;-71
2022/09/26 02:36:56;;;;;;;;;0.00;0.00;;;;;13.58;63.80;101028.13;5104861;27;49900;-73
2022/09/26 02:39:22;;;;;;;;;1.00;1.00;;;;;13.65;63.82;101039.66;5097530;27;49690;-72
2022/09/26 02:42:09;;;;;;;;;1.75;1.00;;;;;13.64;64.27;101035.25;5096721;27;49935;-75
2022/09/26 02:44:53;;;;;;;;;1.75;1.00;;;;;13.63;63.93;101025.56;5095208;27;49629;-73
2022/09/26 02:47:37;;;;;;;;;1.50;1.50;;;;;13.64;64.61;101022.94;5094848;27;49714;-75
2022/09/26 02:50:20;;;;;;;;;1.25;1.25;;;;;13.32;64.22;100948.69;5100512;27;49939;-72
2022/09/26 02:53:04;;;;;;;;;2.00;1.00;;;;;13.66;64.36;100999.19;5114236;27;50546;-73
2022/09/26 02:55:50;;;;;;;;;1.00;1.00;;;;;13.66;64.35;101008.00;5114011;27;49957;-72
2022/09/26 02:58:35;;;;;;;;;1.00;1.00;;;;;13.66;64.38;101000.09;5114010;27;49765;-74
2022/09/26 03:01:16;;;;;;;;;1.00;1.00;;;;;12.99;64.68;100896.38;5114041;27;49918;-73
2022/09/26 03:04:15;;;;;;;;;2.25;2.25;;;;;13.65;65.15;100992.16;5103477;27;50966;-72
2022/09/26 03:06:47;;;;;;;;;0.00;0.00;;;;;13.55;65.45;100967.41;5096104;27;49752;-73
2022/09/26 03:09:15;;;;;;;;;1.75;1.75;;;;;13.26;65.27;100914.34;5099351;27;49750;-73
2022/09/26 03:11:42;;;;;;;;;0.75;0.75;;;;;13.34;65.15;100906.53;5094353;27;49973;-74
2022/09/26 03:14:09;;;;;;;;;1.50;1.00;;;;;13.57;65.30;100957.78;5093925;27;51337;-71
2022/09/26 03:16:38;;;;;;;;;1.75;1.25;;;;;13.68;65.21;100965.81;5094597;27;50024;-71
2022/09/26 03:19:17;;;;;;;;;3.00;3.00;;;;;13.61;65.46;100951.69;5113198;27;49793;-74
2022/09/26 03:21:44;;;;;;;;;1.00;1.00;;;;;13.66;65.49;100968.44;5113621;27;49821;-74
2022/09/26 03:24:12;;;;;;;;;0.25;0.25;;;;;13.56;65.65;100940.19;5113333;27;49787;-72
2022/09/26 03:26:40;;;;;;;;;0.50;0.50;;;;;13.68;65.60;100953.50;5113729;27;49681;-75
2022/09/26 03:29:06;;;;;;;;;1.50;1.50;;;;;13.60;65.70;100930.53;5113661;27;49707;-72
2022/09/26 03:31:31;;;;;;;;;2.50;2.50;;;;;13.54;65.23;100923.47;5113852;27;49777;-71
2022/09/26 03:33:56;;;;;;;;;2.25;1.25;;;;;13.18;65.21;100853.56;5113338;27;50032;-74
2022/09/26 03:36:22;;;;;;;;;2.00;2.00;;;;;13.50;64.77;100908.44;5113541;27;49575;-73
2022/09/26 03:38:47;;;;;;;;;0.25;0.00;;;;;12.96;64.90;100804.13;5113575;27;50070;-75
2022/09/26 03:41:13;;;;;;;;;1.00;1.00;;;;;13.33;64.74;100867.84;5113575;27;49654;-73
2022/09/26 03:43:42;;;;;;;;;1.00;1.00;;;;;13.19;64.86;100843.94;5112328;27;50101;-72
2022/09/26 03:46:10;;;;;;;;;1.75;1.00;;;;;13.62;65.31;100927.06;5093723;27;49780;-74
2022/09/26 03:48:35;;;;;;;;;1.25;1.00;;;;;13.39;65.81;100881.06;5093124;27;49814;-72
2022/09/26 03:51:06;;;;;;;;;4.25;2.00;;;;;13.43;65.85;100882.91;5093727;27;50080;-76
2022/09/26 03:53:32;;;;;;;;;2.25;1.00;;;;;12.33;64.87;100710.28;5093188;27;49975;-73
2022/09/26 03:56:03;;;;;;;;;0.25;0.25;;;;;12.77;65.04;100770.50;5093010;27;49700;-74
2022/09/26 03:58:28;;;;;;;;;1.00;0.00;;;;;13.49;65.33;100884.69;5093097;27;49847;-76
2022/09/26 04:00:54;;;;;;;;;0.75;0.75;;;;;13.62;65.77;100894.53;5074905;27;49605;-74
2022/09/26 04:03:20;;;;;;;;;0.75;0.75;;;;;13.65;65.28;100898.06;5093182;27;50485;-72
2022/09/26 04:05:45;;;;;;;;;1.00;1.00;;;;;12.60;65.26;100718.50;5098077;27;49918;-73
2022/09/26 04:08:11;;;;;;;;;0.50;0.00;;;;;13.56;64.53;100861.03;5093680;27;53078;-76
2022/09/26 04:10:36;;;;;;;;;0.00;0.00;;;;;13.18;64.37;100806.13;5093407;27;50012;-76
2022/09/26 04:13:02;;;;;;;;;0.00;0.00;;;;;13.57;63.76;100857.53;5092928;27;50046;-73
2022/09/26 04:15:28;;;;;;;;;1.75;1.50;;;;;12.92;63.75;100756.63;5074524;27;49909;-75
2022/09/26 04:17:54;;;;;;;;;0.25;0.25;;;;;13.65;64.25;100853.22;5093081;27;49793;-74
2022/09/26 04:20:19;;;;;;;;;0.00;0.00;;;;;13.06;63.76;100750.66;5092963;27;50035;-75
2022/09/26 04:22:44;;;;;;;;;1.00;0.00;;;;;13.65;64.33;100853.22;5074569;27;52447;-72
2022/09/26 04:25:10;;;;;;;;;0.25;0.25;;;;;13.30;64.28;100783.41;5092945;27;49872;-76
2022/09/26 04:27:35;;;;;;;;;2.50;2.00;;;;;13.69;64.76;100867.31;5092878;27;49780;-75
2022/09/26 04:30:00;;;;;;;;;1.00;1.00;;;;;13.66;64.11;100836.53;5094766;27;56999;-75
2022/09/26 04:32:26;;;;;;;;;0.00;0.00;;;;;13.30;64.92;100775.50;5108096;27;50825;-72
2022/09/26 04:34:51;;;;;;;;;1.25;1.25;;;;;13.00;64.91;100710.16;5083981;27;49742;-71
2022/09/26 04:37:19;;;;;;;;;1.00;1.00;;;;;12.36;64.85;100605.03;5102454;27;50591;-75
2022/09/26 04:39:45;;;;;;;;;1.00;1.00;;;;;13.02;64.99;100692.59;5090365;27;49623;-72
2022/09/26 04:42:13;;;;;;;;;1.00;1.00;;;;;13.63;64.59;100806.59;5097369;27;50552;-72
2022/09/26 04:44:42;;;;;;;;;0.00;0.00;;;;;13.58;63.74;100806.56;5096298;27;50314;-75
2022/09/26 04:47:08;;;;;;;;;1.00;1.00;;;;;13.54;64.15;100793.34;5093040;27;50006;-71
2022/09/26 04:49:33;;;;;;;;;2.00;1.00;;;;;13.07;63.78;100712.00;5091666;27;49680;-74
2022/09/26 04:51:59;;;;;;;;;1.00;0.00;;;;;13.57;63.66;100782.81;5091753;27;51066;-73
2022/09/26 04:54:24;;;;;;;;;1.75;1.25;;;;;13.02;63.88;100696.13;5074226;27;49660;-83
2022/09/26 04:56:50;;;;;;;;;1.00;1.00;;;;;12.79;64.15;100635.31;5101962;27;50101;-76
2022/09/26 04:59:15;;;;;;;;;1.00;1.00;;;;;13.13;63.07;100698.88;5091966;27;49596;-76
2022/09/26 05:01:40;;;;;;;;;0.00;0.00;;;;;12.84;63.04;100633.63;5092201;27;50532;-73
2022/09/26 05:04:08;;;;;;;;;0.75;0.00;;;;;12.42;62.78;100562.97;5095904;27;57582;-74
2022/09/26 05:06:33;;;;;;;;;1.25;1.00;;;;;13.39;62.40;100720.22;5106785;27;49965;-76
2022/09/26 05:08:59;;;;;;;;;1.00;1.00;;;;;13.60;62.75;100753.81;5091706;27;49857;-73
2022/09/26 05:11:24;;;;;;;;;1.25;1.25;;;;;12.76;62.56;100627.38;5093740;27;49926;-74
2022/09/26 05:13:50;;;;;;;;;2.00;1.00;;;;;12.18;62.96;100507.44;5090959;27;49980;-72
2022/09/26 05:16:18;;;;;;;;;1.00;0.25;;;;;12.40;62.76;100548.03;5092485;27;49823;-73
2022/09/26 05:18:43;;;;;;;;;1.50;1.50;;;;;13.44;62.09;100685.13;5103003;27;49657;-73
2022/09/26 05:21:09;;;;;;;;;2.00;2.00;;;;;12.95;61.82;100595.94;5116241;27;50122;-76
2022/09/26 05:26:42;;;;;;;;;0.00;0.00;;;;;12.80;61.50;100570.34;5106048;27;49980;-74
2022/09/26 05:29:08;;;;;;;;;0.75;0.00;;;;;13.14;62.16;100625.09;5103281;27;49860;-74
2022/09/26 05:31:36;;;;;;;;;1.00;1.00;;;;;13.66;61.68;100711.66;5099753;27;50647;-82
2022/09/26 05:34:10;;;;;;;;;0.25;0.25;;;;;13.38;61.62;100655.19;5114960;27;49724;-73
2022/09/26 05:36:36;;;;;;;;;2.00;1.00;;;;;13.69;61.88;100707.28;5113308;27;49783;-73
2022/09/26 05:39:02;;;;;;;;;2.00;2.00;;;;;13.53;62.15;100686.06;5092133;27;49681;-71
2022/09/26 05:41:32;;;;;;;;;3.00;1.00;;;;;13.72;62.41;100722.28;5090388;27;49801;-73
2022/09/26 05:43:58;;;;;;;;;3.00;1.75;;;;;13.06;62.35;100589.00;5097590;27;49836;-74
2022/09/26 05:46:24;;;;;;;;;1.00;1.00;;;;;13.69;62.22;100695.84;5114488;27;50631;-74
2022/09/26 05:48:50;;;;;;;;;0.00;0.00;;;;;13.74;62.32;100702.06;5100405;27;49485;-77
2022/09/26 05:51:18;;;;;;;;;3.25;2.00;;;;;13.73;62.69;100698.53;5110850;27;49954;-76
2022/09/26 05:53:45;;;;;;;;;0.75;0.75;;;;;13.71;61.96;100697.66;5107926;27;49440;-78
2022/09/26 05:56:12;;;;;;;;;1.00;1.00;;;;;13.44;63.12;100647.31;5107559;27;49367;-76
2022/09/26 05:58:39;;;;;;;;;1.00;1.00;;;;;13.48;62.66;100659.66;5111393;27;49674;-75
2022/09/26 06:01:09;;;;;;;;;0.50;0.50;;;;;13.65;62.70;100692.31;5103850;27;51474;-77
2022/09/26 06:03:35;;;;;;;;;2.75;1.25;;;;;13.60;62.81;100688.75;5113309;27;50246;-76
2022/09/26 06:06:10;;;;;;;;;1.50;0.75;;;;;12.10;62.30;100438.94;5109932;27;49482;-76
2022/09/26 06:08:37;;;;;;;;;0.00;0.00;;;;;13.36;63.03;100662.19;5122932;27;49485;-77
2022/09/26 06:11:12;;;;;;;;;1.00;1.00;;;;;12.10;62.85;100465.28;5113109;27;51925;-77
2022/09/26 06:13:39;;;;;;;;;3.00;1.00;;;;;12.73;63.33;100586.94;5110361;27;49432;-76
2022/09/26 06:16:06;;;;;;;;;1.00;1.00;;;;;12.61;63.21;100558.75;5107771;27;49702;-77
2022/09/26 06:18:33;;;;;;;;;2.50;1.50;;;;;12.43;63.60;100538.38;5111783;27;49739;-77
2022/09/26 06:21:03;;;;;;;;;1.50;1.00;;;;;12.66;63.60;100566.72;5121119;27;51383;-75
2022/09/26 06:23:30;;;;;;;;;1.00;1.00;;;;;12.83;63.33;100592.31;5108031;27;49493;-76
2022/09/26 06:25:56;;;;;;;;;2.00;1.50;;;;;13.34;63.39;100674.50;5124389;27;49472;-76
2022/09/26 06:28:22;;;;;;;;;2.75;2.00;;;;;12.91;63.50;100595.03;5129187;27;49292;-75
2022/09/26 06:30:47;;;;;;;;;2.00;2.00;;;;;12.36;63.10;100473.41;5127566;27;49447;-76
2022/09/26 06:33:12;;;;;;;;;1.50;1.50;;;;;13.62;63.22;100700.22;5127270;27;49648;-77
2022/09/26 06:35:38;;;;;;;;;1.50;0.25;;;;;12.86;63.11;100538.78;5119869;27;49602;-76
2022/09/26 06:38:04;;;;;;;;;0.25;0.25;;;;;12.89;62.59;100529.16;5107546;27;49614;-77
2022/09/26 06:40:30;;;;;;;;;1.00;1.00;;;;;13.46;62.62;100617.44;5106665;27;50571;-76
2022/09/26 06:42:56;;;;;;;;;1.50;1.25;;;;;13.78;62.83;100666.88;5107362;27;49498;-77
2022/09/26 06:45:21;;;;;;;;;0.00;0.00;;;;;13.41;62.38;100616.56;5104438;27;57835;-76
2022/09/26 06:47:47;;;;;;;;;1.50;1.50;;;;;13.92;63.37;100659.06;5094157;27;49708;-73
2022/09/26 06:52:32;;;;;;;;;3.00;2.25;;;;;14.25;61.80;100643.38;5088934;27;49779;-74
2022/09/26 06:54:58;;;;;;;;;2.25;1.00;;;;;14.21;60.99;100616.97;5087813;27;49698;-76
2022/09/26 06:57:23;;;;;;;;;0.00;0.00;;;;;14.41;60.92;100617.03;5086763;27;49968;-76
2022/09/26 06:59:49;;;;;;;;;1.00;1.00;;;;;14.35;60.00;100601.16;5093256;27;51033;-73
2022/09/26 07:02:15;;;;;;;;;2.00;2.00;;;;;14.57;60.36;100640.91;5086808;27;49779;-73
2022/09/26 07:04:40;;;;;;;;;1.25;1.00;;;;;13.89;59.86;100520.06;5084989;27;49904;-73
2022/09/26 07:07:06;;;;;;;;;0.00;0.00;;;;;14.54;60.02;100625.00;5087511;27;49738;-73
2022/09/26 07:09:32;;;;;;;;;0.50;0.50;;;;;14.40;59.07;100600.31;5087043;27;49963;-73
2022/09/26 07:11:58;;;;;;;;;2.75;1.00;;;;;14.49;60.02;100610.06;5087300;27;49678;-75
2022/09/26 07:14:23;;;;;;;;;1.50;1.50;;;;;14.52;59.49;100599.47;5087177;27;49742;-75
2022/09/26 07:16:50;;;;;;;;;1.00;1.00;;;;;14.42;59.57;100576.53;5087212;27;49903;-75
2022/09/26 07:19:17;;;;;;;;;1.50;1.00;;;;;14.56;59.95;100591.56;5086758;27;52081;-75
2022/09/26 07:21:43;;;;;;;;;1.00;1.00;;;;;14.56;59.29;100572.19;5080561;27;49806;-75
2022/09/26 07:24:12;;;;;;;;;1.00;1.00;;;;;13.43;59.34;100381.88;5087065;27;49782;-76
2022/09/26 07:26:38;;;;;;;;;1.50;0.00;;;;;13.57;59.60;100395.97;5066091;27;49624;-75
2022/09/26 07:29:03;;;;;;;;;0.75;0.75;;;;;13.97;59.20;100444.44;5086967;27;50981;-75
2022/09/26 07:31:29;;;;;;;;;1.00;1.00;;;;;14.75;59.41;100568.69;5086590;27;57415;-72
2022/09/26 07:33:55;;;;;;;;;1.00;1.00;;;;;14.81;59.15;100566.06;5086624;27;49617;-75
2022/09/26 07:36:21;;;;;;;;;1.75;1.75;;;;;14.76;59.27;100551.94;5086971;27;49648;-75
2022/09/26 07:38:47;;;;;;;;;1.00;1.00;;;;;14.84;58.95;100550.19;5086713;27;50134;-75
2022/09/26 07:41:12;;;;;;;;;2.00;1.00;;;;;14.81;59.37;100544.03;5087031;27;49797;-76
2022/09/26 07:43:38;;;;;;;;;1.75;1.75;;;;;14.83;59.30;100535.22;5087138;27;49817;-72
2022/09/26 07:51:31;;;;;;;;;0.75;0.00;;;;;14.83;58.29;100502.63;5086305;27;49789;-76
2022/09/26 07:53:57;;;;;;;;;1.75;1.00;;;;;15.06;58.27;100523.75;5085304;27;49693;-75
2022/09/26 07:56:23;;;;;;;;;0.50;0.50;;;;;15.13;58.20;100526.38;5086780;27;49710;-75
2022/09/26 07:58:49;;;;;;;;;2.00;0.00;;;;;15.18;58.27;100535.19;5086665;27;50760;-75
2022/09/26 08:01:15;;;;;;;;;1.00;1.00;;;;;15.27;58.36;100550.16;5086753;27;49919;-75
2022/09/26 08:03:49;;;;;;;;;3.50;2.00;;;;;15.28;57.79;100533.41;5066966;27;50009;-75
2022/09/26 08:06:19;;;;;;;;;0.75;0.75;;;;;15.32;57.75;100532.50;5067164;28;49679;-75
2022/09/26 08:08:46;;;;;;;;;0.00;0.00;;;;;15.05;57.29;100463.81;5072624;27;49754;-73
2022/09/26 08:11:16;;;;;;;;;1.75;0.00;;;;;15.60;56.67;100525.41;5072498;27;49720;-73
2022/09/26 08:13:42;;;;;;;;;1.75;1.75;;;;;15.51;56.35;100469.84;5072874;27;49809;-73
2022/09/26 08:16:08;;;;;;;;;1.00;1.00;;;;;15.77;56.40;100490.94;5072755;27;49703;-72
2022/09/26 08:18:33;;;;;;;;;1.75;1.25;;;;;16.00;55.93;100496.13;5072411;28;49651;-73
2022/09/26 08:21:01;;;;;;;;;0.75;0.75;;;;;16.15;55.46;100503.09;5072731;27;49768;-72
2022/09/26 08:23:28;;;;;;;;;0.00;0.00;;;;;16.16;55.27;100518.97;5066451;28;49620;-72
2022/09/26 08:25:54;;;;;;;;;0.00;0.00;;;;;15.69;54.86;100410.72;5065903;28;49858;-73
2022/09/26 08:28:19;;;;;;;;;0.00;0.00;;;;;15.37;54.38;100353.53;5072434;27;50483;-75
2022/09/26 08:30:44;;;;;;;;;1.00;1.00;;;;;15.17;54.05;100308.69;5072361;28;49751;-75
2022/09/26 08:33:11;;;;;;;;;2.50;1.00;;;;;15.97;54.11;100435.25;5072111;28;49754;-73
2022/09/26 08:35:37;;;;;;;;;0.75;0.75;;;;;16.10;53.69;100446.63;5072589;28;49916;-75
2022/09/26 08:38:08;;;;;;;;;1.00;1.00;;;;;16.20;53.64;100435.97;5072390;27;49739;-72
2022/09/26 08:40:43;;;;;;;;;2.00;2.00;;;;;16.49;53.28;100464.88;5072365;28;49689;-75
2022/09/26 08:43:28;;;;;;;;;0.25;0.25;;;;;15.43;52.85;100265.31;5072142;27;49728;-75
2022/09/26 08:49:21;;;;;;;;;1.00;1.00;;;;;16.71;52.02;100452.38;5061141;28;50455;-75
2022/09/26 08:51:49;;;;;;;;;2.50;1.00;;;;;16.69;52.10;100446.19;5071910;28;50505;-75
2022/09/26 08:54:31;;;;;;;;;1.00;1.00;;;;;16.17;52.07;100347.72;5072418;28;49933;-75
2022/09/26 08:57:14;;;;;;;;;0.25;0.25;;;;;16.71;51.75;100428.53;5072396;27;49710;-75
2022/09/26 08:59:41;;;;;;;;;2.00;2.00;;;;;16.93;51.63;100438.91;5070532;28;51601;-75
2022/09/26 09:02:32;;;;;;;;;0.25;0.00;;;;;17.05;51.38;100444.06;5071893;27;49711;-75
2022/09/26 09:05:05;;;;;;;;;0.75;0.75;;;;;16.72;51.00;100376.38;5071705;27;49629;-75
2022/09/26 09:07:30;;;;;;;;;2.75;1.00;;;;;17.03;50.88;100406.09;5072184;27;49664;-73
2022/09/26 09:10:02;;;;;;;;;2.50;1.50;;;;;16.97;50.64;100380.50;5072059;28;49905;-73
2022/09/26 09:12:43;;;;;;;;;1.00;1.00;;;;;17.38;50.49;100424.25;5071846;28;49728;-76
2022/09/26 09:15:28;;;;;;;;;1.00;1.00;;;;;17.18;50.45;100382.06;5070819;28;49755;-75
2022/09/26 09:17:53;;;;;;;;;2.00;2.00;;;;;17.36;50.69;100403.03;5071956;27;49874;-75
2022/09/26 09:21:00;;;;;;;;;0.50;0.00;;;;;17.35;50.59;100395.97;5071480;27;49733;-75
2022/09/26 09:23:41;;;;;;;;;1.00;1.00;;;;;17.30;50.30;100407.53;5068542;27;49718;-75
2022/09/26 09:26:24;;;;;;;;;1.25;1.00;;;;;17.36;50.00;100389.75;5071591;27;49604;-75
2022/09/26 09:29:31;;;;;;;;;0.50;0.50;;;;;17.41;49.49;100384.41;5072245;27;50080;-75
2022/09/26 09:32:01;;;;;;;;;2.00;1.00;;;;;17.52;49.73;100387.78;5053566;28;50572;-72
2022/09/26 09:34:31;;;;;;;;;2.00;0.00;;;;;17.55;48.99;100371.81;5070980;28;49898;-73
2022/09/26 09:37:01;;;;;;;;;1.25;1.00;;;;;17.52;49.43;100377.16;5071452;27;49608;-73
2022/09/26 09:39:33;;;;;;;;;1.00;1.00;;;;;17.22;49.31;100319.22;5071416;27;49860;-75
2022/09/26 09:42:15;;;;;;;;;0.00;0.00;;;;;17.51;49.31;100370.13;5071270;27;51065;-75
2022/09/26 09:44:46;;;;;;;;;0.00;0.00;;;;;17.50;49.03;100367.50;5071440;27;49946;-75
2022/09/26 09:47:16;;;;;;;;;1.00;1.00;;;;;17.43;49.04;100342.78;5071336;28;49723;-75
2022/09/26 09:49:43;;;;;;;;;1.00;1.00;;;;;16.87;48.85;100233.03;5071309;27;49778;-75
2022/09/26 09:52:53;;;;;;;;;0.75;0.75;;;;;17.56;48.93;100341.72;5071395;28;51315;-75
2022/09/26 09:55:40;;;;;;;;;1.00;1.00;;;;;17.59;49.20;100335.50;5059807;28;49773;-76
2022/09/26 09:58:28;;;;;;;;;1.00;1.00;;;;;17.52;49.16;100325.88;5071072;28;49983;-73
2022/09/26 10:01:18;;;;;;;;;0.25;0.00;;;;;17.59;49.27;100322.25;5071335;28;49742;-76
2022/09/26 10:03:58;;;;;;;;;3.00;2.00;;;;;17.55;49.86;100313.44;5069327;27;52295;-74
2022/09/26 10:06:24;;;;;;;;;1.00;1.00;;;;;17.11;50.32;100242.44;5071333;27;49871;-74
2022/09/26 10:08:50;;;;;;;;;1.00;1.00;;;;;16.48;49.02;100123.09;5071147;28;49742;-73
2022/09/26 10:11:40;;;;;;;;;1.00;1.00;;;;;17.53;49.34;100312.56;5071231;28;49798;-74
2022/09/26 10:14:12;;;;;;;;;0.00;0.00;;;;;17.49;50.76;100292.31;5070804;28;49889;-74
2022/09/26 10:17:09;;;;;;;;;1.00;1.00;;;;;17.51;50.79;100263.97;5070729;27;49742;-74
2022/09/26 10:19:36;;;;;;;;;2.00;2.00;;;;;17.53;50.39;100274.53;5070847;27;49858;-74
2022/09/26 10:22:08;;;;;;;;;2.75;1.75;;;;;17.43;50.45;100261.41;5070997;28;49735;-74
2022/09/26 10:24:39;;;;;;;;;0.50;0.50;;;;;17.50;50.35;100258.69;5070819;27;49867;-74
2022/09/26 10:27:37;;;;;;;;;1.00;1.00;;;;;17.68;50.05;100269.00;5070360;28;49808;-73
2022/09/26 10:30:08;;;;;;;;;1.00;0.00;;;;;17.21;50.06;100167.16;5070846;27;49728;-74
2022/09/26 10:32:44;;;;;;;;;0.75;0.75;;;;;17.82;50.94;100253.75;5070641;28;50149;-74
2022/09/26 10:35:22;;;;;;;;;1.00;1.00;;;;;17.50;52.25;100208.25;5063854;28;50518;-73
2022/09/26 10:38:05;;;;;;;;;1.50;1.50;;;;;17.42;53.97;100187.16;5073043;27;50614;-73
2022/09/26 10:40:45;;;;;;;;;1.25;1.25;;;;;16.91;54.34;100168.50;5067156;27;50053;-72
2022/09/26 10:43:33;;;;;;;;;1.25;0.50;;;;;17.32;55.22;100254.53;5084555;27;49779;-71
2022/09/26 10:46:07;;;;;;;;;1.00;1.00;;;;;16.92;57.52;100210.00;5073259;28;50018;-73
2022/09/26 10:48:55;;;;;;;;;1.75;1.00;;;;;17.07;58.22;100246.03;5070281;27;50010;-72
2022/09/26 10:51:34;;;;;;;;;0.50;0.50;;;;;17.04;57.67;100233.69;5071101;27;49909;-74
2022/09/26 10:54:08;;;;;;;;;0.50;0.25;;;;;16.77;58.92;100218.16;5070531;27;50373;-74
2022/09/26 10:56:40;;;;;;;;;1.00;1.00;;;;;16.49;59.18;100189.31;5070249;27;51096;-75
2022/09/26 10:59:10;;;;;;;;;1.00;1.00;;;;;15.48;60.39;100022.81;5071229;27;49848;-74
2022/09/26 11:01:41;;;;;;;;;2.25;2.25;;;;;16.00;60.99;100120.19;5069558;27;49727;-78
2022/09/26 11:07:23;;;;;;;;;1.25;1.25;;;;;16.66;61.70;100220.91;5069699;27;50199;-77
2022/09/26 11:09:50;;;;;;;;;2.25;2.25;;;;;16.56;63.38;100192.78;5064857;27;49788;-76
2022/09/26 11:12:30;;;;;;;;;2.00;2.00;;;;;15.96;63.38;100098.16;5075186;27;49646;-76
2022/09/26 11:15:04;;;;;;;;;1.00;1.00;;;;;16.32;63.24;100135.69;5076679;27;50097;-77
2022/09/26 11:17:50;;;;;;;;;3.50;2.00;;;;;16.75;63.10;100180.19;5072613;27;50948;-75
2022/09/26 11:20:37;;;;;;;;;6.00;6.00;;;;;16.93;64.40;100198.50;5074160;27;49813;-75
2022/09/26 11:23:13;;;;;;;;;1.00;1.00;;;;;16.81;62.95;100198.69;5069598;27;50125;-76
2022/09/26 11:25:58;;;;;;;;;1.00;1.00;;;;;16.78;64.09;100188.09;5069925;27;50283;-73
2022/09/26 11:28:33;;;;;;;;;1.25;1.25;;;;;16.54;64.99;100153.06;5067386;28;51469;-77
2022/09/26 11:31:04;;;;;;;;;0.75;0.75;;;;;16.47;64.98;100159.31;5069913;28;50018;-73
2022/09/26 11:33:29;;;;;;;;;1.00;1.00;;;;;16.30;65.47;100151.59;5069660;28;49665;-76
2022/09/26 11:36:23;;;;;;;;;1.00;1.00;;;;;16.37;67.32;100165.63;5070021;27;49924;-77
2022/09/26 11:39:20;;;;;;;;;1.25;0.75;;;;;16.29;68.25;100163.06;5072676;28;50339;-74
2022/09/26 11:42:08;;;;;;;;;1.00;1.00;;;;;15.95;68.03;100114.06;5073147;27;49908;-75
2022/09/26 11:44:42;;;;;;;;;1.25;1.25;;;;;15.81;69.43;100113.34;5071994;28;49955;-79
2022/09/26 11:47:29;;;;;;;;;2.00;1.00;;;;;15.87;69.57;100143.28;5073369;28;49853;-77
2022/09/26 11:49:54;;;;;;;;;1.00;1.00;;;;;15.74;70.20;100149.59;5072826;28;50549;-75
2022/09/26 11:52:29;;;;;;;;;2.50;1.00;;;;;15.62;71.48;100137.34;5072885;27;49842;-77
2022/09/26 11:55:14;;;;;;;;;2.50;1.75;;;;;15.52;71.48;100126.81;5073428;27;49815;-72
2022/09/26 11:57:53;;;;;;;;;2.25;1.00;;;;;15.14;71.75;100091.00;5068792;27;49812;-76
2022/09/26 12:00:27;;;;;;;;;3.00;1.50;;;;;15.32;71.34;100132.28;5073008;28;49845;-72
2022/09/26 12:03:10;;;;;;;;;1.25;1.25;;;;;15.07;72.43;100113.13;5071197;28;49821;-73